Kang Sheng — VRXL3 — position and weather

sailwx.info

Track history (hours):
 
Tides and Currents Weather Stations Pressure Air Temp Water Temp Dewpoint Dewpoint Depression Visibility Wind Speed Wind Dir Waves Ship Positions

Kang Sheng

Last reported at 2015-Jan-18 00:29 UTC. Time now 2015-Jan-26 12:27 UTC.
Position N 08°17' W 014°51'.
Warning: this ship's position is 8 days out of date.

Length 190 m; draft 6.5 m.

Type: Cargo ship. MMSI: 477977000.

Date/timePositionNaut miles runAvg speedWind from/ knotsBaromVisibWave heightAir tempDewpointWater temp
2015-Jan-18 00:29N 08°17' W 014°51'5213.3
2015-Jan-17 20:33N 08°52' W 015°31'1313.4
2015-Jan-17 19:33N 09°00' W 015°41'1513.3
2015-Jan-17 18:28N 09°10' W 015°53'1213.3
2015-Jan-17 17:33N 09°17' W 016°02'1413.6
2015-Jan-17 16:33N 09°26' W 016°12'1413.6
2015-Jan-17 15:33N 09°35' W 016°23'1413.7
2015-Jan-17 14:33N 09°44' W 016°33'  
2015-Jan-11 18:22N 11°28' W 017°29'9111.7
2015-Jan-11 10:33N 10°02' W 016°58'3712.2
2015-Jan-11 07:33N 09°38' W 016°31'1212.0
2015-Jan-11 06:33N 09°30' W 016°21'1312.2
2015-Jan-11 05:31N 09°21' W 016°12'7412.5
2015-Jan-10 23:33N 08°32' W 015°15'2612.8
2015-Jan-10 21:33N 08°15' W 014°56'1512.8
2015-Jan-10 20:21N 08°06' W 014°44'1213.2
2015-Jan-10 19:28N 07°58' W 014°35'  
Track history (hours):
 
Tides and Currents Weather Stations Pressure Air Temp Water Temp Dewpoint Dewpoint Depression Visibility Wind Speed Wind Dir Waves Ship Positions

Kang Sheng

Last reported at 2015-Jan-18 00:29 UTC. Time now 2015-Jan-26 12:27 UTC.
Position N 08°17' W 014°51'.
Warning: this ship's position is 8 days out of date.

Length 190 m; draft 6.5 m.

Type: Cargo ship. MMSI: 477977000.

Date/timePositionNaut miles runAvg speedWind from/ knotsBaromVisibWave heightAir tempDewpointWater temp
2015-Jan-18 00:29N 08°17' W 014°51'5213.3
2015-Jan-17 20:33N 08°52' W 015°31'1313.4
2015-Jan-17 19:33N 09°00' W 015°41'1513.3
2015-Jan-17 18:28N 09°10' W 015°53'1213.3
2015-Jan-17 17:33N 09°17' W 016°02'1413.6
2015-Jan-17 16:33N 09°26' W 016°12'1413.6
2015-Jan-17 15:33N 09°35' W 016°23'1413.7
2015-Jan-17 14:33N 09°44' W 016°33'  
2015-Jan-11 18:22N 11°28' W 017°29'9111.7
2015-Jan-11 10:33N 10°02' W 016°58'3712.2
2015-Jan-11 07:33N 09°38' W 016°31'1212.0
2015-Jan-11 06:33N 09°30' W 016°21'1312.2
2015-Jan-11 05:31N 09°21' W 016°12'7412.5
2015-Jan-10 23:33N 08°32' W 015°15'2612.8
2015-Jan-10 21:33N 08°15' W 014°56'1512.8
2015-Jan-10 20:21N 08°06' W 014°44'1213.2
2015-Jan-10 19:28N 07°58' W 014°35'  

Dump ship's entire track history